createdAt,value
2018-03-26T00:00:26.340Z,54.00
2018-03-26T00:01:26.319Z,53.10
2018-03-26T00:02:26.298Z,54.10
2018-03-26T00:03:26.274Z,55.50
2018-03-26T00:04:26.264Z,55.30
2018-03-26T00:05:26.238Z,54.50
2018-03-26T00:06:26.214Z,56.10
2018-03-26T00:07:26.200Z,53.50
2018-03-26T00:08:26.178Z,55.30
2018-03-26T00:09:26.158Z,55.60
2018-03-26T00:10:26.137Z,55.40
2018-03-26T00:11:26.115Z,54.10
2018-03-26T00:12:26.095Z,54.40
2018-03-26T00:13:26.079Z,55.70
2018-03-26T00:14:26.058Z,55.00
2018-03-26T00:15:26.037Z,55.20
2018-03-26T00:16:26.020Z,56.50
2018-03-26T00:17:25.997Z,56.40
2018-03-26T00:18:25.975Z,56.80
2018-03-26T00:19:25.958Z,56.10
2018-03-26T00:20:25.936Z,56.50
2018-03-26T00:21:25.923Z,56.00
2018-03-26T00:22:25.894Z,55.60
2018-03-26T00:23:25.877Z,57.90
2018-03-26T00:24:25.855Z,56.20
2018-03-26T00:25:25.907Z,57.60
2018-03-26T00:26:25.821Z,55.50
2018-03-26T00:27:25.807Z,56.00
2018-03-26T00:28:25.800Z,55.00
2018-03-26T00:29:25.768Z,57.20
2018-03-26T00:30:25.734Z,55.70
2018-03-26T00:31:25.715Z,56.20
2018-03-26T00:32:25.694Z,55.50
2018-03-26T00:33:25.676Z,58.70
2018-03-26T00:34:25.658Z,56.00
2018-03-26T00:35:25.635Z,57.40
2018-03-26T00:36:25.617Z,57.10
2018-03-26T00:37:25.594Z,55.50
2018-03-26T00:38:25.573Z,58.10
2018-03-26T00:39:25.569Z,55.80
2018-03-26T00:40:25.535Z,55.40
2018-03-26T00:41:25.512Z,54.10
2018-03-26T00:42:25.491Z,56.50
2018-03-26T00:43:25.473Z,55.10
2018-03-26T00:44:25.455Z,55.90
2018-03-26T00:45:25.433Z,54.40
2018-03-26T00:46:25.411Z,55.20
2018-03-26T00:47:25.499Z,58.20
2018-03-26T00:48:25.391Z,55.00
2018-03-26T00:49:25.352Z,55.20
2018-03-26T00:50:25.333Z,56.30
2018-03-26T00:51:25.308Z,54.60
2018-03-26T00:52:25.288Z,54.60
2018-03-26T00:53:25.271Z,55.10
2018-03-26T00:54:25.251Z,54.30
2018-03-26T00:55:25.228Z,52.80
2018-03-26T00:56:25.221Z,52.00
2018-03-26T00:57:25.188Z,54.90
2018-03-26T00:58:25.169Z,53.40
2018-03-26T00:59:25.150Z,53.60
2018-03-26T01:00:25.129Z,52.60
2018-03-26T01:01:25.106Z,54.10
2018-03-26T01:02:25.089Z,53.10
2018-03-26T01:03:25.075Z,53.90
2018-03-26T01:04:25.053Z,52.60
2018-03-26T01:05:25.028Z,52.20
2018-03-26T01:06:25.003Z,50.40
2018-03-26T01:07:24.990Z,53.70
2018-03-26T01:08:24.962Z,53.60
2018-03-26T01:09:24.942Z,52.90
2018-03-26T01:10:24.920Z,52.20
2018-03-26T01:11:24.901Z,52.40
2018-03-26T01:12:24.879Z,52.30
2018-03-26T01:13:24.867Z,51.80
2018-03-26T01:14:24.859Z,54.40
2018-03-26T01:15:24.819Z,49.90
2018-03-26T01:16:24.797Z,51.50
2018-03-26T01:17:24.832Z,49.50
2018-03-26T01:18:24.757Z,51.30
2018-03-26T01:19:24.736Z,52.00
2018-03-26T01:20:24.719Z,52.20
2018-03-26T01:21:24.696Z,49.50
2018-03-26T01:22:24.676Z,51.20
2018-03-26T01:23:24.662Z,53.50
2018-03-26T01:24:24.635Z,50.60
2018-03-26T01:25:24.615Z,51.90
2018-03-26T01:26:24.596Z,51.70
2018-03-26T01:27:24.576Z,52.20
2018-03-26T01:28:24.559Z,52.40
2018-03-26T01:29:24.530Z,51.90
2018-03-26T01:30:24.510Z,51.50
2018-03-26T01:31:24.488Z,53.90
2018-03-26T01:32:24.466Z,51.00
2018-03-26T01:33:24.456Z,51.90
2018-03-26T01:34:24.427Z,50.50
2018-03-26T01:35:24.407Z,52.10
2018-03-26T01:36:24.507Z,51.70
2018-03-26T01:37:24.367Z,51.90
2018-03-26T01:38:24.354Z,51.80
2018-03-26T01:39:24.423Z,48.90
2018-03-26T01:40:24.339Z,51.70
2018-03-26T01:41:24.284Z,50.70
2018-03-26T01:42:24.272Z,49.00
2018-03-26T01:43:24.250Z,50.70
2018-03-26T01:44:24.222Z,51.00
2018-03-26T01:45:24.204Z,50.90
2018-03-26T01:46:24.204Z,51.90
2018-03-26T01:47:24.157Z,52.00
2018-03-26T01:48:24.138Z,49.70
2018-03-26T01:49:24.117Z,51.50
2018-03-26T01:50:24.098Z,51.50
2018-03-26T01:51:24.077Z,51.90
2018-03-26T01:52:24.059Z,50.30
2018-03-26T01:53:24.043Z,51.80
2018-03-26T01:54:24.022Z,50.60
2018-03-26T01:55:24.004Z,50.30
2018-03-26T01:56:23.985Z,51.30
2018-03-26T01:57:23.964Z,50.60
2018-03-26T01:58:23.934Z,50.70
2018-03-26T01:59:23.915Z,50.20
2018-03-26T02:00:23.887Z,50.20
2018-03-26T02:01:23.867Z,50.40
2018-03-26T02:02:23.854Z,49.20
2018-03-26T02:03:23.832Z,49.60
2018-03-26T02:04:23.803Z,50.60
2018-03-26T02:05:23.782Z,52.00
2018-03-26T02:06:23.847Z,50.90
2018-03-26T02:07:23.760Z,49.50
2018-03-26T02:08:23.728Z,51.50
2018-03-26T02:09:23.704Z,50.50
2018-03-26T02:10:23.687Z,51.00
2018-03-26T02:11:23.661Z,50.00
2018-03-26T02:12:23.636Z,47.30
2018-03-26T02:13:23.615Z,48.90
2018-03-26T02:14:23.595Z,48.20
2018-03-26T02:15:23.586Z,51.70
2018-03-26T02:16:23.562Z,49.60
2018-03-26T02:17:23.532Z,50.10
2018-03-26T02:18:23.509Z,48.80
2018-03-26T02:19:23.502Z,49.90
2018-03-26T02:20:23.470Z,49.10
2018-03-26T02:21:23.449Z,48.30
2018-03-26T02:22:23.434Z,49.30
2018-03-26T02:23:23.406Z,48.20
2018-03-26T02:24:23.384Z,47.70
2018-03-26T02:25:23.398Z,48.00
2018-03-26T02:26:23.340Z,46.80
2018-03-26T02:27:23.322Z,47.40
2018-03-26T02:28:23.301Z,48.10
2018-03-26T02:29:23.287Z,47.00
2018-03-26T02:30:23.259Z,47.30
2018-03-26T02:31:23.238Z,45.80
2018-03-26T02:32:23.243Z,49.30
2018-03-26T02:33:23.198Z,46.90
2018-03-26T02:34:23.178Z,45.90
2018-03-26T02:35:23.152Z,45.20
2018-03-26T02:36:23.133Z,47.00
2018-03-26T02:37:23.114Z,47.40
2018-03-26T02:38:23.090Z,47.70
2018-03-26T02:39:23.070Z,45.20
2018-03-26T02:40:23.048Z,47.20
2018-03-26T02:41:23.027Z,49.30
2018-03-26T02:42:23.017Z,46.30
2018-03-26T02:43:22.988Z,47.00
2018-03-26T02:44:22.982Z,46.10
2018-03-26T02:45:22.943Z,45.10
2018-03-26T02:46:22.936Z,45.20
2018-03-26T02:47:22.909Z,45.50
2018-03-26T02:48:22.880Z,47.40
2018-03-26T02:49:22.877Z,46.70
2018-03-26T02:50:22.840Z,47.10
2018-03-26T02:51:22.817Z,45.20
2018-03-26T02:52:22.797Z,48.10
2018-03-26T02:53:22.842Z,47.00
2018-03-26T02:54:22.763Z,45.90
2018-03-26T02:55:22.742Z,48.20
2018-03-26T02:56:22.710Z,46.80
2018-03-26T02:57:22.688Z,46.50
2018-03-26T02:58:22.673Z,47.10
2018-03-26T02:59:22.646Z,48.70
2018-03-26T03:00:22.637Z,46.90
2018-03-26T03:01:22.605Z,49.30
2018-03-26T03:02:22.590Z,48.60
2018-03-26T03:03:22.560Z,50.10
2018-03-26T03:04:22.541Z,50.20
2018-03-26T03:05:22.519Z,49.60
2018-03-26T03:06:22.495Z,48.40
2018-03-26T03:07:22.474Z,50.30
2018-03-26T03:08:22.458Z,51.30
2018-03-26T03:09:22.440Z,49.80
2018-03-26T03:10:22.414Z,50.80
2018-03-26T03:11:22.397Z,49.80
2018-03-26T03:12:22.368Z,52.40
2018-03-26T03:13:22.346Z,50.60
2018-03-26T03:14:22.325Z,51.20
2018-03-26T03:15:22.303Z,50.30
2018-03-26T03:16:22.286Z,51.10
2018-03-26T03:17:22.352Z,53.40
2018-03-26T03:18:22.240Z,52.20
2018-03-26T03:19:22.218Z,53.00
2018-03-26T03:20:22.225Z,54.20
2018-03-26T03:21:22.186Z,54.50
2018-03-26T03:22:22.151Z,52.50
2018-03-26T03:23:22.134Z,55.50
2018-03-26T03:24:22.110Z,56.00
2018-03-26T03:25:22.089Z,55.00
2018-03-26T03:26:22.072Z,55.10
2018-03-26T03:27:22.046Z,53.70
2018-03-26T03:28:22.027Z,53.70
2018-03-26T03:29:22.004Z,52.80
2018-03-26T03:30:21.981Z,52.20
2018-03-26T03:31:21.965Z,54.20
2018-03-26T03:32:21.940Z,52.50
2018-03-26T03:33:21.922Z,53.80
2018-03-26T03:34:21.897Z,53.90
2018-03-26T03:35:21.873Z,52.80
2018-03-26T03:36:21.853Z,52.50
2018-03-26T03:37:21.832Z,54.30
2018-03-26T03:38:21.839Z,53.20
2018-03-26T03:39:21.858Z,52.30
2018-03-26T03:40:21.767Z,55.10
2018-03-26T03:41:21.758Z,54.60
2018-03-26T03:42:21.725Z,53.90
2018-03-26T03:43:21.702Z,54.70
2018-03-26T03:44:21.682Z,53.60
2018-03-26T03:45:21.662Z,54.00
2018-03-26T03:46:21.640Z,53.50
2018-03-26T03:47:21.731Z,52.70
2018-03-26T03:48:21.593Z,53.90
2018-03-26T03:49:21.580Z,52.30
2018-03-26T03:50:21.668Z,52.40
2018-03-26T03:51:21.530Z,50.90
2018-03-26T03:52:21.510Z,54.10
2018-03-26T03:53:21.491Z,51.80
2018-03-26T03:54:21.469Z,53.80
2018-03-26T03:55:21.444Z,53.40
2018-03-26T03:56:21.464Z,51.60
2018-03-26T03:57:21.403Z,53.60
2018-03-26T03:58:21.380Z,54.00
2018-03-26T03:59:21.359Z,54.10
2018-03-26T04:00:21.337Z,54.30
2018-03-26T04:01:21.320Z,52.30
2018-03-26T04:02:21.292Z,52.90
2018-03-26T04:03:21.277Z,53.70
2018-03-26T04:04:21.257Z,55.40
2018-03-26T04:05:21.229Z,53.50
2018-03-26T04:06:21.206Z,52.40
2018-03-26T04:07:21.184Z,52.40
2018-03-26T04:08:21.166Z,53.90
2018-03-26T04:09:21.141Z,54.10
2018-03-26T04:10:21.125Z,52.70
2018-03-26T04:11:21.107Z,54.30
2018-03-26T04:12:21.084Z,53.80
2018-03-26T04:13:21.057Z,54.30
2018-03-26T04:14:21.034Z,53.10
2018-03-26T04:15:21.010Z,54.90
2018-03-26T04:16:20.990Z,52.10
2018-03-26T04:17:20.968Z,53.90
2018-03-26T04:18:20.954Z,52.00
2018-03-26T04:19:20.940Z,52.60
2018-03-26T04:20:20.900Z,53.40
2018-03-26T04:21:20.880Z,52.00
2018-03-26T04:22:20.946Z,52.50
2018-03-26T04:23:20.838Z,50.50
2018-03-26T04:24:20.817Z,52.70
2018-03-26T04:25:20.806Z,50.70
2018-03-26T04:26:20.776Z,53.20
2018-03-26T04:27:20.750Z,52.90
2018-03-26T04:28:20.729Z,50.40
2018-03-26T04:29:20.707Z,51.90
2018-03-26T04:30:20.684Z,52.00
2018-03-26T04:31:20.665Z,50.20
2018-03-26T04:32:20.645Z,51.60
2018-03-26T04:33:20.623Z,51.70
2018-03-26T04:34:20.599Z,51.90
2018-03-26T04:35:20.690Z,51.30
2018-03-26T04:36:20.556Z,51.20
2018-03-26T04:37:20.533Z,51.00
2018-03-26T04:38:20.514Z,51.00
2018-03-26T04:39:20.495Z,50.30
2018-03-26T04:40:20.467Z,51.20
2018-03-26T04:41:20.597Z,51.20
2018-03-26T04:42:20.423Z,50.80
2018-03-26T04:43:20.402Z,49.70
2018-03-26T04:44:20.485Z,50.10
2018-03-26T04:45:20.363Z,48.50
2018-03-26T04:46:20.338Z,50.70
2018-03-26T04:47:20.318Z,49.90
2018-03-26T04:48:20.293Z,49.50
2018-03-26T04:49:20.272Z,50.00
2018-03-26T04:50:20.313Z,48.40
2018-03-26T04:51:20.226Z,50.40
2018-03-26T04:52:20.276Z,49.20
2018-03-26T04:53:20.184Z,48.20
2018-03-26T04:54:20.161Z,47.80
2018-03-26T04:55:20.194Z,49.40
2018-03-26T04:56:20.128Z,49.40
2018-03-26T04:57:20.102Z,49.70
2018-03-26T04:58:20.079Z,49.10
2018-03-26T04:59:20.060Z,47.90
2018-03-26T05:00:20.033Z,47.70
2018-03-26T05:01:20.012Z,48.30
2018-03-26T05:02:19.999Z,48.20
2018-03-26T05:03:19.973Z,46.00
2018-03-26T05:04:19.945Z,45.50
2018-03-26T05:05:19.925Z,44.00
2018-03-26T05:06:19.902Z,46.30
2018-03-26T05:07:19.878Z,44.40
2018-03-26T05:08:19.860Z,45.00
2018-03-26T05:09:19.837Z,45.40
2018-03-26T05:10:19.815Z,45.40
2018-03-26T05:11:19.810Z,43.50
2018-03-26T05:12:19.773Z,45.00
2018-03-26T05:13:19.748Z,43.80
2018-03-26T05:14:19.876Z,43.00
2018-03-26T05:15:19.703Z,45.10
2018-03-26T05:16:19.684Z,43.80
2018-03-26T05:17:19.660Z,43.10
2018-03-26T05:18:19.638Z,42.20
2018-03-26T05:19:19.617Z,42.40
2018-03-26T05:20:19.605Z,41.50
2018-03-26T05:21:19.580Z,42.30
2018-03-26T05:22:19.557Z,41.80
2018-03-26T05:23:19.539Z,41.10
2018-03-26T05:24:19.507Z,40.70
2018-03-26T05:25:19.486Z,40.00
2018-03-26T05:26:19.462Z,41.10
2018-03-26T05:27:19.442Z,41.70
2018-03-26T05:28:19.440Z,40.00
2018-03-26T05:29:19.399Z,42.10
2018-03-26T05:30:19.386Z,41.50
2018-03-26T05:31:19.356Z,39.00
2018-03-26T05:32:19.337Z,41.40
2018-03-26T05:33:19.454Z,40.80
2018-03-26T05:34:19.294Z,40.60
2018-03-26T05:35:19.266Z,40.70
2018-03-26T05:36:19.252Z,39.90
2018-03-26T05:37:19.225Z,40.30
2018-03-26T05:38:19.202Z,38.70
2018-03-26T05:39:19.182Z,39.90
2018-03-26T05:40:19.158Z,39.80
2018-03-26T05:41:19.137Z,40.20
2018-03-26T05:42:19.127Z,40.00
2018-03-26T05:43:19.098Z,38.90
2018-03-26T05:44:19.133Z,38.60
2018-03-26T05:45:19.052Z,37.70
2018-03-26T05:46:19.028Z,37.10
2018-03-26T05:47:19.052Z,37.50
2018-03-26T05:48:18.979Z,36.80
2018-03-26T05:49:18.960Z,37.50
2018-03-26T05:50:18.945Z,36.00
2018-03-26T05:51:18.925Z,35.60
2018-03-26T05:52:18.894Z,36.60
2018-03-26T05:53:18.875Z,34.90
2018-03-26T05:54:18.849Z,36.50
2018-03-26T05:55:18.828Z,36.80
2018-03-26T05:56:18.808Z,35.80
2018-03-26T05:57:18.783Z,35.90
2018-03-26T05:58:18.762Z,36.50
2018-03-26T05:59:18.743Z,33.80
2018-03-26T06:00:18.718Z,33.60
2018-03-26T06:01:18.697Z,32.70
2018-03-26T06:02:18.675Z,33.70
2018-03-26T06:03:18.659Z,33.80
2018-03-26T06:04:18.633Z,30.90
2018-03-26T06:05:18.609Z,31.40
2018-03-26T06:06:18.588Z,32.70
2018-03-26T06:07:18.572Z,32.50
2018-03-26T06:08:18.541Z,32.40
2018-03-26T06:09:18.665Z,33.00
2018-03-26T06:10:18.501Z,32.90
2018-03-26T06:11:18.477Z,31.40
2018-03-26T06:12:18.459Z,33.30
2018-03-26T06:13:18.433Z,31.50
2018-03-26T06:14:18.422Z,33.80
2018-03-26T06:15:18.389Z,33.00
2018-03-26T06:16:18.368Z,33.30
2018-03-26T06:17:18.346Z,33.50
2018-03-26T06:18:18.323Z,34.80
2018-03-26T06:19:18.308Z,32.80
2018-03-26T06:20:18.281Z,33.10
2018-03-26T06:21:18.260Z,33.20
2018-03-26T06:22:18.239Z,35.70
2018-03-26T06:23:18.215Z,35.40
2018-03-26T06:24:18.192Z,36.30
2018-03-26T06:25:18.176Z,33.60
2018-03-26T06:26:18.350Z,34.80
2018-03-26T06:27:18.130Z,33.10
2018-03-26T06:28:18.111Z,33.90
2018-03-26T06:29:18.242Z,33.00
2018-03-26T06:30:18.062Z,34.60
2018-03-26T06:31:18.042Z,32.70
2018-03-26T06:32:18.040Z,32.90
2018-03-26T06:33:18.003Z,31.50
2018-03-26T06:34:17.977Z,33.80
2018-03-26T06:35:17.960Z,34.00
2018-03-26T06:36:17.939Z,33.30
2018-03-26T06:37:17.913Z,32.50
2018-03-26T06:38:17.894Z,32.90
2018-03-26T06:39:17.870Z,33.00
2018-03-26T06:40:17.866Z,33.40
2018-03-26T06:41:17.825Z,32.20
2018-03-26T06:42:17.808Z,29.60
2018-03-26T06:43:17.785Z,30.40
2018-03-26T06:44:17.798Z,30.50
2018-03-26T06:45:17.748Z,28.90
2018-03-26T06:46:17.733Z,28.60
2018-03-26T06:47:17.699Z,28.20
2018-03-26T06:48:17.687Z,29.50
2018-03-26T06:49:17.663Z,30.10
2018-03-26T06:50:17.646Z,29.50
2018-03-26T06:51:17.635Z,29.90
2018-03-26T06:52:17.598Z,30.50
2018-03-26T06:53:17.584Z,30.10
2018-03-26T06:54:17.560Z,30.80
2018-03-26T06:55:17.538Z,29.80
2018-03-26T06:56:17.510Z,28.80
2018-03-26T06:57:17.489Z,28.20
2018-03-26T06:58:17.470Z,29.20
2018-03-26T06:59:17.459Z,30.70
2018-03-26T07:00:17.429Z,29.60
2018-03-26T07:01:17.406Z,29.70
2018-03-26T07:02:17.393Z,28.90
2018-03-26T07:03:17.365Z,29.60
2018-03-26T07:04:17.458Z,30.20
2018-03-26T07:05:17.320Z,30.30
2018-03-26T07:06:17.300Z,30.50
2018-03-26T07:07:17.284Z,31.60
2018-03-26T07:08:17.259Z,30.70
2018-03-26T07:09:17.253Z,32.70
2018-03-26T07:10:17.214Z,31.30
2018-03-26T07:11:17.195Z,33.20
2018-03-26T07:12:17.183Z,33.50
2018-03-26T07:13:17.163Z,33.70
2018-03-26T07:14:17.236Z,31.50
2018-03-26T07:15:17.123Z,34.90
2018-03-26T07:16:17.098Z,34.30
2018-03-26T07:17:17.069Z,32.90
2018-03-26T07:18:17.059Z,32.80
2018-03-26T07:19:17.026Z,32.80
2018-03-26T07:20:17.006Z,33.80
2018-03-26T07:21:16.988Z,35.10
2018-03-26T07:22:16.965Z,35.40
2018-03-26T07:23:16.943Z,31.90
2018-03-26T07:24:16.937Z,31.40
2018-03-26T07:25:16.905Z,30.10
2018-03-26T07:26:16.883Z,30.70
2018-03-26T07:27:16.869Z,30.70
2018-03-26T07:28:16.838Z,30.60
2018-03-26T07:29:16.819Z,28.80
2018-03-26T07:30:16.932Z,29.50
2018-03-26T07:31:16.777Z,28.00
2018-03-26T07:32:16.755Z,28.90
2018-03-26T07:33:16.794Z,30.00
2018-03-26T07:34:16.716Z,28.00
2018-03-26T07:35:16.692Z,29.50
2018-03-26T07:36:16.682Z,29.50
2018-03-26T07:37:16.652Z,27.80
2018-03-26T07:38:16.641Z,29.70
2018-03-26T07:39:16.617Z,29.20
2018-03-26T07:40:16.599Z,32.20
2018-03-26T07:41:16.716Z,29.20
2018-03-26T07:42:16.570Z,29.30
2018-03-26T07:43:16.531Z,30.60
2018-03-26T07:44:16.510Z,29.00
2018-03-26T07:45:16.493Z,28.60
2018-03-26T07:46:16.465Z,28.50
2018-03-26T07:47:16.445Z,29.10
2018-03-26T07:48:16.422Z,29.20
2018-03-26T07:49:16.408Z,27.70
2018-03-26T07:50:16.384Z,27.60
2018-03-26T07:51:16.360Z,26.30
2018-03-26T07:52:16.364Z,26.80
2018-03-26T07:53:16.321Z,25.30
2018-03-26T07:54:16.302Z,24.20
2018-03-26T07:55:16.280Z,21.90
2018-03-26T07:56:16.262Z,21.10
2018-03-26T07:57:16.240Z,21.30
2018-03-26T07:58:16.219Z,20.10
2018-03-26T07:59:16.194Z,20.20
2018-03-26T08:00:16.174Z,20.50
2018-03-26T08:01:16.160Z,19.10
2018-03-26T08:02:16.133Z,18.00
2018-03-26T08:03:16.264Z,19.20
2018-03-26T08:04:16.098Z,19.10
2018-03-26T08:05:16.084Z,18.00
2018-03-26T08:06:16.102Z,17.30
2018-03-26T08:07:16.037Z,18.40
2018-03-26T08:08:16.028Z,17.50
2018-03-26T08:09:15.999Z,18.10
2018-03-26T08:10:15.977Z,16.30
2018-03-26T08:11:15.960Z,16.90
2018-03-26T08:12:15.939Z,16.20
2018-03-26T08:13:15.922Z,15.20
2018-03-26T08:14:15.907Z,14.30
2018-03-26T08:15:15.894Z,13.80
2018-03-26T08:16:15.877Z,12.10
2018-03-26T08:17:15.862Z,12.80
2018-03-26T08:18:15.840Z,12.50
2018-03-26T08:19:15.817Z,12.50
2018-03-26T08:20:15.812Z,13.00
2018-03-26T08:21:15.787Z,12.90
2018-03-26T08:22:15.895Z,11.80
2018-03-26T08:23:15.760Z,12.00
2018-03-26T08:24:15.744Z,12.20
2018-03-26T08:25:15.730Z,14.20
2018-03-26T08:26:15.709Z,13.40
2018-03-26T08:27:15.696Z,12.90
2018-03-26T08:28:15.678Z,12.90
2018-03-26T08:29:15.666Z,12.90
2018-03-26T08:30:15.666Z,13.50
2018-03-26T08:31:15.640Z,13.00
2018-03-26T08:32:15.631Z,12.20
2018-03-26T08:33:15.610Z,12.40
2018-03-26T08:34:15.595Z,13.60
2018-03-26T08:35:15.577Z,13.80
2018-03-26T08:36:15.570Z,13.40
2018-03-26T08:37:15.548Z,13.90
2018-03-26T08:38:15.550Z,14.80
2018-03-26T08:39:15.525Z,13.80
2018-03-26T08:40:15.510Z,13.70
2018-03-26T08:41:15.502Z,13.60
2018-03-26T08:42:15.500Z,14.80
2018-03-26T08:43:15.507Z,13.00
2018-03-26T08:44:15.508Z,13.40
2018-03-26T08:45:15.438Z,13.10
2018-03-26T08:46:15.432Z,14.00
2018-03-26T08:47:15.409Z,13.50
2018-03-26T08:48:15.397Z,14.00
2018-03-26T08:49:15.392Z,14.50
2018-03-26T08:50:15.443Z,14.90
2018-03-26T08:51:15.355Z,16.00
2018-03-26T08:52:15.342Z,15.30
2018-03-26T08:53:15.336Z,13.80
2018-03-26T08:54:15.318Z,16.40
2018-03-26T08:55:15.304Z,16.90
2018-03-26T08:56:15.326Z,16.10
2018-03-26T08:57:15.281Z,16.90
2018-03-26T08:58:15.276Z,16.50
2018-03-26T08:59:15.279Z,17.70
2018-03-26T09:00:15.245Z,16.60
2018-03-26T09:01:15.250Z,17.00
2018-03-26T09:02:15.220Z,16.90
2018-03-26T09:03:15.335Z,17.00
2018-03-26T09:04:15.202Z,17.60
2018-03-26T09:05:15.194Z,17.50
2018-03-26T09:06:15.227Z,15.90
2018-03-26T09:07:15.164Z,16.50
2018-03-26T09:08:15.153Z,15.40
2018-03-26T09:09:15.146Z,15.00
2018-03-26T09:10:15.131Z,14.30
2018-03-26T09:11:15.125Z,13.80
2018-03-26T09:12:15.114Z,13.80
2018-03-26T09:13:15.103Z,12.90
2018-03-26T09:14:15.093Z,13.40
2018-03-26T09:15:15.082Z,13.90
2018-03-26T09:16:15.072Z,12.70
2018-03-26T09:17:15.066Z,15.30
2018-03-26T09:18:15.055Z,11.70
2018-03-26T09:19:15.046Z,12.10
2018-03-26T09:20:15.040Z,11.50
2018-03-26T09:21:15.041Z,10.80
2018-03-26T09:22:15.020Z,11.90
2018-03-26T09:23:15.019Z,12.10
2018-03-26T09:24:15.008Z,12.50
2018-03-26T09:25:14.995Z,12.30
2018-03-26T09:26:15.001Z,12.10
2018-03-26T09:27:14.979Z,12.00
2018-03-26T09:28:14.972Z,12.50
2018-03-26T09:29:14.961Z,12.80
2018-03-26T09:30:14.952Z,12.20
2018-03-26T09:31:14.948Z,12.60
2018-03-26T09:32:14.947Z,11.60
2018-03-26T09:33:14.937Z,11.90
2018-03-26T09:34:14.923Z,11.50
2018-03-26T09:35:14.972Z,11.80
2018-03-26T09:36:14.967Z,12.10
2018-03-26T09:37:14.902Z,11.70
2018-03-26T09:38:14.897Z,13.00
2018-03-26T09:39:14.908Z,12.90
2018-03-26T09:40:14.881Z,13.20
2018-03-26T09:41:14.883Z,13.10
2018-03-26T09:42:14.881Z,12.40
2018-03-26T09:43:14.862Z,12.60
2018-03-26T09:44:14.847Z,12.50
2018-03-26T09:45:14.850Z,12.30
2018-03-26T09:46:14.859Z,12.40
2018-03-26T09:47:14.836Z,11.70
2018-03-26T09:48:14.835Z,12.30
2018-03-26T09:49:14.845Z,12.00
2018-03-26T09:50:14.818Z,11.90
2018-03-26T09:51:14.815Z,12.60
2018-03-26T09:52:14.915Z,12.80
2018-03-26T09:53:14.863Z,12.80
2018-03-26T09:54:14.798Z,12.00
2018-03-26T09:55:14.858Z,12.20
2018-03-26T09:56:14.789Z,12.10
2018-03-26T09:57:14.779Z,12.00
2018-03-26T09:58:14.788Z,11.60
2018-03-26T09:59:14.770Z,11.80
2018-03-26T10:00:14.764Z,12.00
2018-03-26T10:01:14.761Z,11.70
2018-03-26T10:02:14.755Z,11.60
2018-03-26T10:03:14.755Z,11.70
2018-03-26T10:04:14.781Z,12.10
2018-03-26T10:05:14.806Z,11.20
2018-03-26T10:06:14.734Z,11.00
2018-03-26T10:07:14.729Z,11.60
2018-03-26T10:08:14.834Z,11.70
2018-03-26T10:09:14.727Z,11.40
2018-03-26T10:10:14.724Z,11.60
2018-03-26T10:11:14.714Z,12.00
2018-03-26T10:12:14.714Z,11.60
2018-03-26T10:13:14.703Z,10.80
2018-03-26T10:14:14.694Z,12.00
2018-03-26T10:15:14.687Z,11.40
2018-03-26T10:16:14.687Z,12.00
2018-03-26T10:17:14.682Z,12.20
2018-03-26T10:18:14.672Z,11.20
2018-03-26T10:19:14.673Z,11.50
2018-03-26T10:20:14.666Z,12.20
2018-03-26T10:21:14.663Z,11.50
2018-03-26T10:22:14.657Z,11.20
2018-03-26T10:23:14.652Z,10.90
2018-03-26T10:24:14.644Z,10.80
2018-03-26T10:25:14.700Z,11.00
2018-03-26T10:26:14.636Z,11.10
2018-03-26T10:27:14.640Z,11.00
2018-03-26T10:28:14.678Z,10.80
2018-03-26T10:29:14.621Z,11.30
2018-03-26T10:30:14.622Z,10.80
2018-03-26T10:31:14.643Z,11.40
2018-03-26T10:32:14.611Z,11.50
2018-03-26T10:33:14.603Z,11.50
2018-03-26T10:34:14.607Z,11.70
2018-03-26T10:35:14.597Z,12.00
2018-03-26T10:36:14.595Z,12.60
2018-03-26T10:37:14.584Z,12.60
2018-03-26T10:38:14.582Z,12.10
2018-03-26T10:39:14.581Z,12.20
2018-03-26T10:40:14.570Z,12.70
2018-03-26T10:41:14.562Z,12.40
2018-03-26T10:42:14.560Z,12.30
2018-03-26T10:43:14.552Z,12.20
2018-03-26T10:44:14.553Z,12.20
2018-03-26T10:45:14.552Z,12.00
2018-03-26T10:46:14.663Z,11.30
2018-03-26T10:47:14.532Z,12.40
2018-03-26T10:48:14.526Z,10.70
2018-03-26T10:49:14.533Z,10.70
2018-03-26T10:50:14.516Z,10.10
2018-03-26T10:51:14.511Z,9.70
2018-03-26T10:52:14.510Z,9.30
2018-03-26T10:53:14.498Z,9.40
2018-03-26T10:54:14.497Z,9.40
2018-03-26T10:55:14.493Z,10.20
2018-03-26T10:56:14.488Z,9.80
2018-03-26T10:57:14.477Z,8.60
2018-03-26T10:58:14.469Z,8.60
2018-03-26T10:59:14.563Z,9.00
2018-03-26T11:00:14.471Z,8.60
2018-03-26T11:01:14.451Z,8.50
2018-03-26T11:02:14.447Z,8.70
2018-03-26T11:03:14.476Z,9.10
2018-03-26T11:04:14.440Z,9.30
2018-03-26T11:05:14.437Z,10.20
2018-03-26T11:06:14.424Z,10.60
2018-03-26T11:07:14.417Z,9.80
2018-03-26T11:08:14.493Z,9.50
2018-03-26T11:09:14.405Z,9.30
2018-03-26T11:10:14.400Z,9.80
2018-03-26T11:11:14.403Z,10.00
2018-03-26T11:12:14.388Z,9.70
2018-03-26T11:13:14.386Z,8.80
2018-03-26T11:14:14.389Z,10.30
2018-03-26T11:15:14.398Z,9.70
2018-03-26T11:17:14.352Z,10.50
2018-03-26T11:18:14.404Z,10.60
2018-03-26T11:19:14.344Z,9.80
2018-03-26T11:20:14.331Z,9.90
2018-03-26T11:21:14.322Z,9.40
2018-03-26T11:22:14.327Z,9.10
2018-03-26T11:23:14.326Z,9.90
2018-03-26T11:24:14.306Z,9.70
2018-03-26T11:25:14.299Z,9.30
2018-03-26T11:26:14.286Z,8.50
2018-03-26T11:27:14.284Z,8.50
2018-03-26T11:28:14.274Z,8.40
2018-03-26T11:29:14.270Z,9.30
2018-03-26T11:30:14.266Z,8.80
2018-03-26T11:31:14.258Z,7.90
2018-03-26T11:32:14.248Z,9.50
2018-03-26T11:33:14.245Z,8.50
2018-03-26T11:34:14.237Z,9.60
2018-03-26T11:35:14.229Z,9.30
2018-03-26T11:36:14.443Z,8.90
2018-03-26T11:37:14.213Z,8.70
2018-03-26T11:38:14.212Z,8.60
2018-03-26T11:39:14.278Z,8.70
2018-03-26T11:40:14.206Z,8.90
2018-03-26T11:41:14.189Z,9.30
2018-03-26T11:42:14.177Z,9.40
2018-03-26T11:43:14.172Z,9.70
2018-03-26T11:44:14.162Z,9.90
2018-03-26T11:45:14.155Z,8.90
2018-03-26T11:46:14.145Z,8.80
2018-03-26T11:47:14.137Z,9.40
2018-03-26T11:48:14.136Z,9.40
2018-03-26T11:49:14.132Z,9.60
2018-03-26T11:50:14.111Z,8.20
2018-03-26T11:51:14.107Z,8.10
2018-03-26T11:52:14.096Z,8.50
2018-03-26T11:53:14.087Z,7.40
2018-03-26T11:54:14.077Z,7.80
2018-03-26T11:55:14.133Z,8.00
2018-03-26T11:56:14.069Z,8.50
2018-03-26T11:57:14.056Z,8.00
2018-03-26T11:58:14.044Z,7.60
2018-03-26T11:59:14.032Z,8.10
2018-03-26T12:00:14.030Z,8.40
2018-03-26T12:01:14.023Z,8.20
2018-03-26T12:02:14.003Z,8.50
2018-03-26T12:03:13.992Z,8.70
2018-03-26T12:04:13.982Z,8.60
2018-03-26T12:05:14.030Z,9.00
2018-03-26T12:06:13.968Z,8.60
2018-03-26T12:07:13.953Z,8.00
2018-03-26T12:08:13.941Z,8.20
2018-03-26T12:09:13.931Z,8.20
2018-03-26T12:10:13.918Z,8.40
2018-03-26T12:11:13.910Z,8.90
2018-03-26T12:12:13.900Z,8.20
2018-03-26T12:13:13.894Z,8.60
2018-03-26T12:14:13.880Z,8.50
2018-03-26T12:15:13.871Z,8.60
2018-03-26T12:16:13.850Z,9.20
2018-03-26T12:17:13.842Z,8.40
2018-03-26T12:18:13.911Z,8.60
2018-03-26T12:19:13.819Z,7.80
2018-03-26T12:20:13.804Z,8.00
2018-03-26T12:21:13.816Z,8.00
2018-03-26T12:22:13.780Z,7.70
2018-03-26T12:23:13.770Z,8.20
2018-03-26T12:24:13.750Z,8.10
2018-03-26T12:25:13.737Z,7.50
2018-03-26T12:26:13.722Z,7.50
2018-03-26T12:27:13.715Z,7.50
2018-03-26T12:28:14.110Z,7.90
2018-03-26T12:29:13.692Z,7.30
2018-03-26T12:30:13.671Z,8.30
2018-03-26T12:31:13.779Z,8.50
2018-03-26T12:32:13.640Z,8.50
2018-03-26T12:33:13.635Z,8.10
2018-03-26T12:34:13.617Z,7.60
2018-03-26T12:35:13.599Z,8.00
2018-03-26T12:36:13.588Z,8.50
2018-03-26T12:37:13.582Z,8.00
2018-03-26T12:38:13.551Z,7.30
2018-03-26T12:39:13.650Z,8.00
2018-03-26T12:40:13.521Z,7.60
2018-03-26T12:41:13.508Z,7.30
2018-03-26T12:42:13.517Z,7.20
2018-03-26T12:43:13.478Z,7.80
2018-03-26T12:44:13.464Z,7.50
2018-03-26T12:45:13.447Z,7.50
2018-03-26T12:46:13.438Z,7.30
2018-03-26T12:47:13.417Z,7.30
2018-03-26T12:48:13.406Z,7.90
2018-03-26T12:49:13.387Z,7.30
2018-03-26T12:50:13.376Z,7.00
2018-03-26T12:51:13.356Z,7.50
2018-03-26T12:52:13.357Z,8.40
2018-03-26T12:53:13.326Z,14.80
2018-03-26T12:54:13.315Z,7.90
2018-03-26T12:55:13.396Z,10.70
2018-03-26T12:56:13.284Z,18.60
2018-03-26T12:57:13.269Z,8.50